Time;durP1;ratioP1;P1;durP2;ratioP2;P2;SDS_P1;SDS_P2;PMS_P1;PMS_P2;Temp;Humidity;BMP_temperature;BMP_pressure;BME280_temperature;BME280_humidity;BME280_pressure;Samples;Min_cycle;Max_cycle;Signal;HPM_P1;HPM_P2
2022/09/30 00:02:11;;;;;;;8.43;5.43;;;5.90;99.90;;;;;;4943513;28;20034;-77
2022/09/30 00:04:36;;;;;;;6.00;4.38;;;5.80;99.90;;;;;;4960937;28;20447;-77
2022/09/30 00:07:02;;;;;;;6.53;4.00;;;5.70;99.90;;;;;;4940860;28;20050;-77
2022/09/30 00:09:27;;;;;;;4.97;3.45;;;5.80;99.90;;;;;;4964484;28;20065;-78
2022/09/30 00:11:53;;;;;;;5.35;4.07;;;5.80;99.90;;;;;;4957885;28;20101;-77
2022/09/30 00:14:20;;;;;;;5.10;3.78;;;5.80;99.90;;;;;;4959686;28;20032;-77
2022/09/30 00:16:45;;;;;;;4.88;3.45;;;5.80;99.90;;;;;;4943011;28;20038;-77
2022/09/30 00:19:11;;;;;;;7.75;4.38;;;5.70;99.90;;;;;;4963962;28;20035;-77
2022/09/30 00:21:37;;;;;;;13.35;5.25;;;5.70;99.90;;;;;;4956419;28;20035;-77
2022/09/30 00:24:03;;;;;;;7.72;4.00;;;5.50;99.90;;;;;;4928111;28;20599;-77
2022/09/30 00:26:29;;;;;;;4.95;3.97;;;5.60;99.90;;;;;;4955833;28;20488;-77
2022/09/30 00:28:56;;;;;;;4.72;4.10;;;5.50;99.90;;;;;;4942400;28;20033;-77
2022/09/30 00:31:22;;;;;;;7.68;4.25;;;5.50;99.90;;;;;;4946254;28;20082;-77
2022/09/30 00:34:06;;;;;;;5.97;4.07;;;5.40;99.90;;;;;;4954138;28;20380;-77
2022/09/30 00:36:41;;;;;;;6.55;4.38;;;5.40;99.90;;;;;;4959921;28;20031;-78
2022/09/30 00:39:07;;;;;;;7.38;4.55;;;5.50;99.90;;;;;;4955707;28;20495;-77
2022/09/30 00:41:33;;;;;;;6.20;4.00;;;5.50;99.90;;;;;;4926987;28;20178;-78
2022/09/30 00:43:59;;;;;;;5.50;3.65;;;5.40;99.90;;;;;;4931487;28;20034;-77
2022/09/30 00:46:35;;;;;;;7.90;4.85;;;5.40;99.90;;;;;;4942211;28;20093;-77
2022/09/30 00:49:34;;;;;;;8.20;5.40;;;5.40;99.90;;;;;;4942521;28;20640;-77
2022/09/30 00:51:59;;;;;;;9.45;4.38;;;5.40;99.90;;;;;;4952260;28;20027;-77
2022/09/30 00:54:28;;;;;;;6.25;4.13;;;5.30;99.90;;;;;;4944258;28;20043;-77
2022/09/30 00:56:56;;;;;;;6.45;4.38;;;5.40;99.90;;;;;;4946302;28;20519;-77
2022/09/30 00:59:48;;;;;;;5.50;3.90;;;5.40;99.90;;;;;;4947008;28;20034;-78
2022/09/30 01:02:13;;;;;;;5.93;3.80;;;5.40;99.90;;;;;;4959889;28;20181;-78
2022/09/30 01:04:39;;;;;;;5.82;4.30;;;5.40;99.90;;;;;;4948625;28;20590;-77
2022/09/30 01:07:05;;;;;;;10.40;4.50;;;5.30;99.90;;;;;;4924845;28;20146;-78
2022/09/30 01:09:34;;;;;;;6.18;4.03;;;5.30;99.90;;;;;;4942613;28;20435;-77
2022/09/30 01:12:04;;;;;;;7.70;4.55;;;5.40;99.90;;;;;;4943260;28;20042;-78
2022/09/30 01:14:29;;;;;;;7.45;4.82;;;5.40;99.90;;;;;;4945756;28;20035;-77
2022/09/30 01:17:05;;;;;;;4.60;4.07;;;5.20;99.90;;;;;;4941170;28;20037;-77
2022/09/30 01:19:54;;;;;;;6.90;5.30;;;5.10;99.90;;;;;;4947020;28;20045;-77
2022/09/30 01:22:41;;;;;;;8.27;6.25;;;5.20;99.90;;;;;;4962752;28;20034;-77
2022/09/30 01:25:25;;;;;;;13.50;5.22;;;5.10;99.90;;;;;;4946876;28;20058;-77
2022/09/30 01:28:12;;;;;;;11.07;5.43;;;5.00;99.90;;;;;;4937860;28;20457;-77
2022/09/30 01:30:54;;;;;;;6.25;4.38;;;5.00;99.90;;;;;;4943627;28;20121;-77
2022/09/30 01:33:28;;;;;;;7.82;4.50;;;5.10;99.90;;;;;;4940138;28;20032;-77
2022/09/30 01:36:04;;;;;;;7.10;4.93;;;5.20;99.90;;;;;;4934791;28;20040;-78
2022/09/30 01:38:43;;;;;;;4.60;3.88;;;5.20;99.90;;;;;;4938741;29;20035;-77
2022/09/30 01:41:53;;;;;;;10.10;5.07;;;5.10;99.90;;;;;;4974883;28;20035;-76
2022/09/30 01:44:29;;;;;;;11.80;6.10;;;4.90;99.90;;;;;;4946761;28;20398;-77
2022/09/30 01:47:00;;;;;;;6.47;4.70;;;4.90;99.90;;;;;;4959847;28;20126;-76
2022/09/30 01:49:33;;;;;;;11.88;6.55;;;4.70;99.90;;;;;;4945130;28;20039;-76
2022/09/30 01:52:04;;;;;;;7.68;4.03;;;4.80;99.90;;;;;;4930518;28;20063;-77
2022/09/30 01:55:03;;;;;;;6.15;3.83;;;5.10;99.90;;;;;;4959550;28;20062;-77
2022/09/30 01:57:38;;;;;;;8.93;5.00;;;5.10;99.90;;;;;;4948123;28;20438;-77
2022/09/30 02:00:06;;;;;;;6.47;4.93;;;4.90;99.90;;;;;;4939846;28;20036;-77
2022/09/30 02:02:34;;;;;;;9.25;5.65;;;4.90;99.90;;;;;;4954910;28;20035;-78
2022/09/30 02:05:01;;;;;;;6.93;4.60;;;4.80;99.90;;;;;;4939235;28;20028;-77
2022/09/30 02:07:34;;;;;;;10.05;5.65;;;4.70;99.90;;;;;;4939275;28;20135;-77
2022/09/30 02:10:24;;;;;;;6.38;4.78;;;4.70;99.90;;;;;;4924674;28;20055;-78
2022/09/30 02:13:03;;;;;;;9.38;5.78;;;4.60;99.90;;;;;;4956276;28;20134;-78
2022/09/30 02:15:33;;;;;;;6.30;4.80;;;4.60;99.90;;;;;;4945870;28;20038;-77
2022/09/30 02:18:41;;;;;;;5.78;4.63;;;4.60;99.90;;;;;;4944963;28;20026;-78
2022/09/30 02:21:07;;;;;;;6.30;4.35;;;4.60;99.90;;;;;;4932582;29;20044;-77
2022/09/30 02:23:34;;;;;;;8.65;6.32;;;4.60;99.90;;;;;;4943122;29;20023;-77
2022/09/30 02:26:17;;;;;;;9.98;5.57;;;4.60;99.90;;;;;;4933478;28;20038;-77
2022/09/30 02:28:45;;;;;;;8.35;5.28;;;4.60;99.90;;;;;;4948472;28;20516;-77
2022/09/30 02:31:10;;;;;;;6.90;5.07;;;4.60;99.90;;;;;;4926763;28;20476;-77
2022/09/30 02:33:39;;;;;;;7.13;4.88;;;4.70;99.90;;;;;;4945595;28;20034;-78
2022/09/30 02:36:09;;;;;;;7.53;4.75;;;4.60;99.90;;;;;;4940609;28;20092;-78
2022/09/30 02:38:40;;;;;;;10.85;6.25;;;4.60;99.90;;;;;;4944405;28;20032;-77
2022/09/30 02:41:13;;;;;;;9.57;5.78;;;4.70;99.90;;;;;;4942403;28;20753;-77
2022/09/30 02:43:41;;;;;;;9.23;6.00;;;4.60;99.90;;;;;;4952157;28;20057;-76
2022/09/30 02:46:31;;;;;;;11.23;6.43;;;4.40;99.90;;;;;;4941270;28;20696;-77
2022/09/30 02:49:07;;;;;;;10.73;6.28;;;4.40;99.90;;;;;;4959398;28;20372;-77
2022/09/30 02:51:55;;;;;;;9.63;6.75;;;4.40;99.90;;;;;;4926840;28;20073;-76
2022/09/30 02:54:23;;;;;;;12.60;7.00;;;4.30;99.90;;;;;;4949977;28;20067;-77
2022/09/30 02:57:08;;;;;;;11.73;7.25;;;4.20;99.90;;;;;;4960371;28;20507;-77
2022/09/30 02:59:33;;;;;;;8.57;6.05;;;4.20;99.90;;;;;;4955235;28;20091;-77
2022/09/30 03:01:59;;;;;;;8.93;6.30;;;4.20;99.90;;;;;;4965102;28;20030;-76
2022/09/30 03:04:27;;;;;;;8.02;5.60;;;4.20;99.90;;;;;;4942782;28;20027;-76
2022/09/30 03:06:53;;;;;;;10.98;6.45;;;4.20;99.90;;;;;;4923627;28;20046;-77
2022/09/30 03:09:26;;;;;;;11.57;7.07;;;4.30;99.90;;;;;;4953423;28;20038;-77
2022/09/30 03:11:54;;;;;;;12.40;7.25;;;4.20;99.90;;;;;;4943785;28;20146;-77
2022/09/30 03:14:37;;;;;;;13.57;7.65;;;4.20;99.90;;;;;;4945610;28;20050;-77
2022/09/30 03:17:16;;;;;;;16.23;7.28;;;4.30;99.90;;;;;;4959395;28;20031;-78
2022/09/30 03:20:08;;;;;;;7.28;5.72;;;4.30;99.90;;;;;;4958193;28;20117;-77
2022/09/30 03:22:52;;;;;;;7.72;5.38;;;4.30;99.90;;;;;;4960255;28;20114;-78
2022/09/30 03:25:36;;;;;;;8.57;6.22;;;4.30;99.90;;;;;;4957689;28;20512;-77
2022/09/30 03:28:37;;;;;;;10.85;6.78;;;4.40;99.90;;;;;;4959861;28;20451;-77
2022/09/30 03:31:15;;;;;;;13.88;7.25;;;4.40;99.90;;;;;;4934026;28;20019;-77
2022/09/30 03:34:06;;;;;;;11.63;9.00;;;4.40;99.90;;;;;;4927245;28;20024;-79
2022/09/30 03:36:58;;;;;;;14.02;8.02;;;4.10;99.90;;;;;;4947887;28;20574;-79
2022/09/30 03:39:27;;;;;;;19.35;8.90;;;4.10;99.90;;;;;;4928687;28;20027;-79
2022/09/30 03:42:28;;;;;;;9.60;7.50;;;4.00;99.90;;;;;;4960131;28;20035;-79
2022/09/30 03:45:36;;;;;;;12.25;8.10;;;4.00;99.90;;;;;;4946599;28;20094;-79
2022/09/30 03:48:04;;;;;;;11.65;8.20;;;4.00;99.90;;;;;;4936476;28;20103;-79
2022/09/30 03:50:30;;;;;;;13.48;8.85;;;4.00;99.90;;;;;;4959477;28;20035;-79
2022/09/30 03:52:55;;;;;;;13.43;8.82;;;3.90;99.90;;;;;;4939055;28;20040;-78
2022/09/30 03:55:21;;;;;;;14.60;8.18;;;3.90;99.90;;;;;;4944496;28;20502;-79
2022/09/30 03:57:48;;;;;;;14.15;8.93;;;3.80;99.90;;;;;;4938165;28;20111;-79
2022/09/30 04:00:14;;;;;;;12.77;9.18;;;3.80;99.90;;;;;;4963219;28;20035;-80
2022/09/30 04:02:40;;;;;;;12.13;9.43;;;3.70;99.90;;;;;;4938235;28;20031;-79
2022/09/30 04:05:06;;;;;;;12.43;7.25;;;3.80;99.90;;;;;;4945544;28;20086;-79
2022/09/30 04:07:34;;;;;;;11.70;8.05;;;3.80;99.90;;;;;;4928441;29;20037;-79
2022/09/30 04:10:00;;;;;;;10.65;7.68;;;3.90;99.90;;;;;;4931511;28;20022;-79
2022/09/30 04:12:25;;;;;;;11.05;7.82;;;4.00;99.90;;;;;;4942530;28;20058;-79
2022/09/30 04:14:51;;;;;;;10.15;7.95;;;3.90;99.90;;;;;;4910456;28;20046;-79
2022/09/30 04:17:17;;;;;;;12.98;8.40;;;3.90;99.90;;;;;;4924067;28;20087;-80
2022/09/30 04:19:42;;;;;;;14.27;8.23;;;3.90;99.90;;;;;;4940404;28;20735;-79
2022/09/30 04:22:08;;;;;;;12.18;9.32;;;3.80;99.90;;;;;;4961865;28;20087;-79
2022/09/30 04:24:34;;;;;;;13.77;8.95;;;3.80;99.90;;;;;;4958646;28;20030;-79
2022/09/30 04:26:59;;;;;;;14.45;9.88;;;3.70;99.90;;;;;;4942523;28;20030;-80
2022/09/30 04:29:25;;;;;;;12.10;9.05;;;3.70;99.90;;;;;;4961027;28;20055;-79
2022/09/30 04:31:53;;;;;;;13.50;9.50;;;3.70;99.90;;;;;;4947013;28;20041;-79
2022/09/30 04:34:18;;;;;;;14.88;9.82;;;3.70;99.90;;;;;;4961984;28;20211;-79
2022/09/30 04:36:44;;;;;;;14.52;10.18;;;3.70;99.90;;;;;;4963176;28;20031;-79
2022/09/30 04:39:10;;;;;;;13.93;9.88;;;3.70;99.90;;;;;;4930078;28;20031;-79
2022/09/30 04:41:37;;;;;;;14.13;9.38;;;3.70;99.90;;;;;;4946107;28;20049;-79
2022/09/30 04:44:05;;;;;;;12.10;8.40;;;3.70;99.90;;;;;;4946412;28;20463;-79
2022/09/30 04:46:31;;;;;;;15.13;9.15;;;3.70;99.90;;;;;;4943956;28;20419;-79
2022/09/30 04:48:56;;;;;;;12.68;8.10;;;3.70;99.90;;;;;;4945296;28;20394;-79
2022/09/30 04:51:22;;;;;;;13.80;9.45;;;3.70;99.90;;;;;;4946596;28;20022;-79
2022/09/30 04:53:48;;;;;;;10.25;8.43;;;3.70;99.90;;;;;;4940470;28;20099;-79
2022/09/30 04:56:15;;;;;;;13.13;9.05;;;3.70;99.90;;;;;;4964717;28;20047;-80
2022/09/30 04:58:41;;;;;;;12.25;9.95;;;3.70;99.90;;;;;;4961308;28;20471;-79
2022/09/30 05:01:11;;;;;;;16.00;9.75;;;3.60;99.90;;;;;;4938477;28;20042;-79
2022/09/30 05:03:37;;;;;;;11.98;9.10;;;3.60;99.90;;;;;;4960069;28;20514;-79
2022/09/30 05:06:03;;;;;;;14.55;10.07;;;3.60;99.90;;;;;;4962409;28;20027;-80
2022/09/30 05:08:28;;;;;;;13.20;9.82;;;3.70;99.90;;;;;;4950789;28;20094;-79
2022/09/30 05:10:56;;;;;;;15.73;10.90;;;3.60;99.90;;;;;;4948381;28;20047;-80
2022/09/30 05:13:24;;;;;;;15.00;10.82;;;3.60;99.90;;;;;;4961247;28;20054;-80
2022/09/30 05:15:50;;;;;;;14.10;9.63;;;3.60;99.90;;;;;;4945064;28;20338;-80
2022/09/30 05:18:17;;;;;;;18.15;10.82;;;3.60;99.90;;;;;;4959590;28;20039;-80
2022/09/30 05:20:42;;;;;;;17.58;10.55;;;3.60;99.90;;;;;;4960282;28;20391;-79
2022/09/30 05:23:08;;;;;;;20.20;11.73;;;3.50;99.90;;;;;;4958432;28;20031;-79
2022/09/30 05:25:34;;;;;;;14.88;10.35;;;3.50;99.90;;;;;;4962172;28;20521;-79
2022/09/30 05:28:00;;;;;;;14.90;10.18;;;3.50;99.90;;;;;;4944210;28;20030;-79
2022/09/30 05:30:25;;;;;;;15.10;10.75;;;3.50;99.90;;;;;;4942058;28;20046;-78
2022/09/30 05:32:51;;;;;;;15.63;10.13;;;3.40;99.90;;;;;;4944610;28;20199;-78
2022/09/30 05:35:19;;;;;;;13.45;10.80;;;3.50;99.90;;;;;;4961586;28;20034;-79
2022/09/30 05:37:44;;;;;;;17.00;10.82;;;3.50;99.90;;;;;;4963130;28;20038;-79
2022/09/30 05:40:10;;;;;;;17.48;12.32;;;3.50;99.90;;;;;;4957824;28;20518;-79
2022/09/30 05:42:35;;;;;;;23.10;12.68;;;3.50;99.90;;;;;;4956280;28;20031;-79
2022/09/30 05:45:05;;;;;;;17.77;12.00;;;3.40;99.90;;;;;;4960748;28;20038;-78
2022/09/30 05:47:32;;;;;;;18.23;12.65;;;3.50;99.90;;;;;;4926819;28;20032;-78
2022/09/30 05:49:58;;;;;;;19.08;11.68;;;3.60;99.90;;;;;;4959288;28;20062;-78
2022/09/30 05:52:23;;;;;;;17.75;10.65;;;3.60;99.90;;;;;;4940845;28;20030;-78
2022/09/30 05:54:49;;;;;;;13.60;10.40;;;3.50;99.90;;;;;;4951760;28;20384;-79
2022/09/30 05:57:15;;;;;;;20.58;12.35;;;3.50;99.90;;;;;;4961548;28;20533;-78
2022/09/30 05:59:40;;;;;;;20.10;12.77;;;3.60;99.90;;;;;;4944820;28;20499;-78
2022/09/30 06:02:08;;;;;;;21.08;13.20;;;3.50;99.90;;;;;;4944710;28;20491;-78
2022/09/30 06:04:33;;;;;;;24.92;14.25;;;3.60;99.90;;;;;;4959606;28;20039;-79
2022/09/30 06:06:59;;;;;;;18.65;12.52;;;3.60;99.90;;;;;;4958014;28;20760;-78
2022/09/30 06:09:25;;;;;;;20.83;13.93;;;3.60;99.90;;;;;;4958138;28;20063;-78
2022/09/30 06:11:51;;;;;;;21.60;14.50;;;3.70;99.90;;;;;;4958594;28;20435;-78
2022/09/30 06:14:18;;;;;;;19.33;14.18;;;3.80;99.90;;;;;;4946976;28;20038;-78
2022/09/30 06:16:44;;;;;;;22.50;14.02;;;3.80;99.90;;;;;;4956477;28;20071;-79
2022/09/30 06:19:13;;;;;;;26.48;14.60;;;4.00;99.90;;;;;;4956926;28;20170;-80
2022/09/30 06:21:38;;;;;;;19.38;14.15;;;4.00;99.90;;;;;;4944645;28;20049;-79
2022/09/30 06:24:04;;;;;;;21.23;13.88;;;4.10;99.90;;;;;;4944525;28;20728;-80
2022/09/30 06:26:30;;;;;;;20.83;13.50;;;4.10;99.90;;;;;;4945930;28;20027;-79
2022/09/30 06:28:55;;;;;;;17.25;10.88;;;4.10;99.90;;;;;;4941161;28;20419;-79
2022/09/30 06:31:21;;;;;;;18.25;11.20;;;4.10;99.90;;;;;;4958662;28;20110;-79
2022/09/30 06:33:46;;;;;;;21.33;12.70;;;4.30;99.90;;;;;;4973067;28;20034;-79
2022/09/30 06:36:12;;;;;;;23.85;12.75;;;4.50;99.90;;;;;;4962406;28;20526;-79
2022/09/30 06:38:38;;;;;;;23.48;12.02;;;4.50;99.90;;;;;;4945593;28;20051;-79
2022/09/30 06:41:04;;;;;;;14.20;11.05;;;4.50;99.90;;;;;;4945396;28;20038;-78
2022/09/30 06:43:30;;;;;;;18.00;12.18;;;4.50;99.90;;;;;;4939661;28;20395;-79
2022/09/30 06:45:56;;;;;;;12.02;8.85;;;4.60;99.90;;;;;;4941654;28;20035;-78
2022/09/30 06:48:22;;;;;;;19.80;12.90;;;4.70;99.90;;;;;;4946692;28;20038;-79
2022/09/30 06:50:47;;;;;;;17.98;11.57;;;4.80;99.90;;;;;;4955405;28;20039;-78
2022/09/30 06:53:14;;;;;;;16.98;9.43;;;4.90;99.90;;;;;;4961096;28;20097;-79
2022/09/30 06:55:40;;;;;;;16.13;12.00;;;5.10;99.90;;;;;;4952935;28;20090;-79
2022/09/30 06:58:10;;;;;;;15.38;11.10;;;5.20;99.90;;;;;;4960050;28;20454;-79
2022/09/30 07:00:36;;;;;;;18.58;10.40;;;5.40;99.90;;;;;;4948628;28;20565;-78
2022/09/30 07:03:02;;;;;;;17.73;12.35;;;5.40;99.90;;;;;;4944627;28;20034;-79
2022/09/30 07:05:28;;;;;;;19.23;12.10;;;5.30;99.90;;;;;;4961104;28;20039;-79
2022/09/30 07:07:53;;;;;;;13.82;9.23;;;5.30;99.90;;;;;;4948638;28;20483;-79
2022/09/30 07:10:19;;;;;;;15.00;9.95;;;5.60;99.90;;;;;;4957363;28;20447;-79
2022/09/30 07:12:49;;;;;;;17.80;10.55;;;5.80;99.90;;;;;;4959252;28;20370;-80
2022/09/30 07:15:20;;;;;;;13.55;8.98;;;6.00;99.90;;;;;;4947596;28;20121;-79
2022/09/30 07:17:52;;;;;;;10.57;8.40;;;6.20;99.90;;;;;;4928022;28;20120;-79
2022/09/30 07:20:18;;;;;;;16.02;10.07;;;6.40;99.90;;;;;;4946807;28;20125;-78
2022/09/30 07:22:45;;;;;;;17.90;12.15;;;6.40;99.90;;;;;;4948951;28;20132;-78
2022/09/30 07:25:11;;;;;;;19.85;14.27;;;6.50;99.90;;;;;;4948817;28;20034;-79
2022/09/30 07:27:38;;;;;;;13.57;9.32;;;6.40;99.90;;;;;;4939125;28;20042;-79
2022/09/30 07:30:04;;;;;;;25.25;15.15;;;6.80;99.90;;;;;;4959126;28;20051;-79
2022/09/30 07:32:30;;;;;;;18.15;12.65;;;6.70;99.90;;;;;;4961206;28;20035;-79
2022/09/30 07:34:57;;;;;;;16.80;12.02;;;6.90;99.90;;;;;;4940913;28;20506;-79
2022/09/30 07:37:23;;;;;;;22.52;14.15;;;7.00;99.90;;;;;;4947848;28;20034;-78
2022/09/30 07:39:48;;;;;;;22.23;14.13;;;7.20;99.90;;;;;;4945818;28;20058;-78
2022/09/30 07:42:14;;;;;;;22.80;13.65;;;7.60;99.90;;;;;;4961613;28;20053;-78
2022/09/30 07:44:43;;;;;;;17.35;10.20;;;7.80;99.90;;;;;;4943976;28;20083;-78
2022/09/30 07:47:09;;;;;;;21.13;12.55;;;8.00;99.90;;;;;;4948770;28;20197;-78
2022/09/30 07:49:37;;;;;;;12.43;7.45;;;8.20;99.90;;;;;;4977334;28;20483;-79
2022/09/30 07:52:03;;;;;;;12.27;8.45;;;8.40;99.90;;;;;;4932895;28;20038;-78
2022/09/30 07:54:29;;;;;;;12.52;8.80;;;8.40;99.90;;;;;;4938617;28;20031;-79
2022/09/30 07:56:55;;;;;;;13.75;9.20;;;8.60;99.90;;;;;;4948735;28;20504;-79
2022/09/30 07:59:21;;;;;;;15.15;8.45;;;8.50;99.90;;;;;;4948325;28;20062;-78
2022/09/30 08:01:47;;;;;;;13.40;7.93;;;8.80;99.90;;;;;;4941510;28;20170;-78
2022/09/30 08:04:13;;;;;;;11.07;8.25;;;8.90;99.90;;;;;;4963870;28;20387;-79
2022/09/30 08:06:44;;;;;;;12.05;8.55;;;9.20;99.90;;;;;;4957436;28;20094;-78
2022/09/30 08:09:09;;;;;;;22.42;12.15;;;9.30;99.90;;;;;;4944026;28;20399;-79
2022/09/30 08:11:36;;;;;;;18.75;10.20;;;9.60;99.90;;;;;;4944899;28;20024;-79
2022/09/30 08:14:03;;;;;;;18.63;9.82;;;9.40;99.90;;;;;;4957221;28;20038;-78
2022/09/30 08:16:31;;;;;;;14.25;8.55;;;9.70;99.90;;;;;;4942948;28;20046;-79
2022/09/30 08:18:59;;;;;;;21.67;13.02;;;10.00;99.90;;;;;;4942313;28;20027;-79
2022/09/30 08:21:25;;;;;;;12.85;9.07;;;9.80;99.90;;;;;;4947755;28;20039;-79
2022/09/30 08:23:50;;;;;;;16.63;9.60;;;10.00;99.90;;;;;;4944011;28;20750;-79
2022/09/30 08:26:16;;;;;;;17.67;10.40;;;10.40;99.90;;;;;;4962693;28;21078;-79
2022/09/30 08:28:42;;;;;;;19.30;10.13;;;10.40;99.90;;;;;;4959827;28;20172;-79
2022/09/30 08:31:09;;;;;;;21.65;15.18;;;10.60;99.90;;;;;;4959648;28;20061;-78
2022/09/30 08:33:35;;;;;;;17.65;11.75;;;10.80;99.90;;;;;;4947818;28;20293;-79
2022/09/30 08:36:03;;;;;;;22.60;12.70;;;11.20;99.90;;;;;;4960307;28;20118;-79
2022/09/30 08:38:29;;;;;;;19.80;11.63;;;11.60;99.90;;;;;;4959240;28;20532;-79
2022/09/30 08:41:04;;;;;;;20.30;11.45;;;11.60;99.90;;;;;;4959443;28;20114;-79
2022/09/30 08:44:01;;;;;;;22.92;10.02;;;11.90;99.90;;;;;;4961863;28;20495;-79
2022/09/30 08:46:37;;;;;;;15.60;10.77;;;12.00;99.90;;;;;;4943295;28;20034;-79
2022/09/30 08:49:38;;;;;;;15.82;11.35;;;12.40;99.90;;;;;;4947780;28;20031;-79
2022/09/30 08:52:07;;;;;;;13.75;10.18;;;12.20;99.90;;;;;;4935076;28;20055;-79
2022/09/30 08:54:33;;;;;;;12.13;9.57;;;12.50;99.90;;;;;;4945612;28;20043;-79
2022/09/30 08:57:00;;;;;;;14.90;9.90;;;12.60;99.90;;;;;;4957214;28;20049;-79
2022/09/30 08:59:31;;;;;;;16.95;9.57;;;12.70;99.90;;;;;;4961637;28;20523;-79
2022/09/30 09:02:13;;;;;;;16.08;9.73;;;12.70;99.90;;;;;;4943600;28;20035;-79
2022/09/30 09:04:39;;;;;;;18.33;10.02;;;12.80;99.90;;;;;;4945226;28;20031;-79
2022/09/30 09:07:09;;;;;;;13.95;9.70;;;13.10;99.90;;;;;;4956831;28;20035;-79
2022/09/30 09:10:01;;;;;;;13.18;8.45;;;13.20;99.90;;;;;;4930327;28;20390;-79
2022/09/30 09:12:52;;;;;;;14.95;8.70;;;13.30;99.90;;;;;;4970369;28;20031;-79
2022/09/30 09:15:36;;;;;;;11.70;7.90;;;13.00;99.90;;;;;;4959663;28;20046;-79
2022/09/30 09:18:05;;;;;;;14.40;8.55;;;13.60;99.90;;;;;;4945498;28;20147;-79
2022/09/30 09:20:37;;;;;;;10.95;8.13;;;13.70;99.90;;;;;;4977471;28;20047;-79
2022/09/30 09:23:03;;;;;;;11.13;7.90;;;13.70;99.90;;;;;;4941676;28;20130;-79
2022/09/30 09:25:29;;;;;;;13.73;9.73;;;14.00;99.90;;;;;;4960714;28;20039;-79
2022/09/30 09:28:01;;;;;;;13.50;9.45;;;14.40;99.90;;;;;;4943312;28;20035;-79
2022/09/30 09:30:29;;;;;;;12.48;9.98;;;14.60;99.90;;;;;;4944643;28;20031;-79
2022/09/30 09:33:00;;;;;;;15.48;9.77;;;14.20;99.90;;;;;;4945399;28;20034;-79
2022/09/30 09:35:34;;;;;;;10.02;8.63;;;14.50;99.90;;;;;;4945358;28;20047;-80
2022/09/30 09:38:23;;;;;;;14.55;8.63;;;15.10;99.90;;;;;;4956871;28;20039;-79
2022/09/30 09:40:58;;;;;;;8.88;7.55;;;15.40;99.90;;;;;;4958430;28;20139;-79
2022/09/30 09:43:42;;;;;;;11.35;9.15;;;15.60;99.90;;;;;;4957941;28;20260;-79
2022/09/30 09:46:25;;;;;;;16.33;8.75;;;15.60;99.90;;;;;;4959385;28;20082;-79
2022/09/30 09:49:19;;;;;;;11.45;7.72;;;15.40;99.90;;;;;;4957600;28;20035;-79
2022/09/30 09:52:04;;;;;;;11.35;7.55;;;15.50;99.90;;;;;;4960261;28;20071;-79
2022/09/30 09:54:30;;;;;;;11.48;7.97;;;15.80;99.90;;;;;;4945116;28;20039;-79
2022/09/30 09:57:04;;;;;;;9.85;6.68;;;15.90;99.90;;;;;;4943156;28;20400;-79
2022/09/30 09:59:30;;;;;;;13.45;6.30;;;16.10;99.90;;;;;;4941550;28;20524;-78
2022/09/30 10:01:55;;;;;;;9.05;6.28;;;16.10;99.90;;;;;;4946967;28;20127;-78
2022/09/30 10:04:24;;;;;;;7.35;6.15;;;16.30;99.90;;;;;;4942475;28;20046;-79
2022/09/30 10:06:53;;;;;;;8.95;6.22;;;16.40;99.90;;;;;;4939183;28;20035;-79
2022/09/30 10:09:26;;;;;;;11.40;6.90;;;16.40;99.90;;;;;;4959744;28;20427;-79
2022/09/30 10:12:18;;;;;;;6.32;5.72;;;16.50;99.90;;;;;;4956260;28;20488;-79
2022/09/30 10:15:01;;;;;;;8.57;6.22;;;16.90;99.90;;;;;;4956916;28;20081;-79
2022/09/30 10:17:28;;;;;;;7.03;5.47;;;16.40;99.90;;;;;;4934293;28;20042;-78
2022/09/30 10:20:16;;;;;;;7.03;5.50;;;16.70;99.90;;;;;;4959001;28;20079;-79
2022/09/30 10:22:42;;;;;;;10.48;6.35;;;16.70;99.90;;;;;;4948548;28;20089;-79
2022/09/30 10:25:14;;;;;;;7.60;6.13;;;17.40;99.90;;;;;;4956291;28;20889;-78
2022/09/30 10:27:59;;;;;;;6.70;5.50;;;17.70;99.90;;;;;;4945360;28;20547;-78
2022/09/30 10:30:53;;;;;;;7.32;5.65;;;17.80;99.90;;;;;;4923014;28;20371;-78
2022/09/30 10:33:23;;;;;;;6.68;5.25;;;17.80;99.90;;;;;;4958722;28;20039;-78
2022/09/30 10:35:59;;;;;;;7.75;5.22;;;17.30;99.90;;;;;;4964478;28;20047;-80
2022/09/30 10:38:25;;;;;;;6.60;5.32;;;17.60;99.90;;;;;;4953493;28;20502;-79
2022/09/30 10:40:51;;;;;;;8.60;5.25;;;17.80;99.70;;;;;;4938419;28;20133;-79
2022/09/30 10:43:26;;;;;;;6.85;4.70;;;18.10;98.60;;;;;;4944295;28;20126;-79
2022/09/30 10:45:52;;;;;;;7.93;5.85;;;18.10;98.50;;;;;;4948853;28;20042;-80
2022/09/30 10:48:19;;;;;;;5.80;4.55;;;18.20;98.80;;;;;;4961097;28;20054;-79
2022/09/30 10:50:50;;;;;;;9.27;5.80;;;18.30;97.40;;;;;;4934626;28;20114;-80
2022/09/30 10:53:28;;;;;;;5.80;4.65;;;18.10;98.20;;;;;;4949196;28;20042;-80
2022/09/30 10:55:54;;;;;;;12.80;5.85;;;18.50;98.00;;;;;;4948024;28;20038;-79
2022/09/30 10:58:34;;;;;;;7.72;4.68;;;18.20;99.30;;;;;;4946419;28;20031;-80
2022/09/30 11:01:09;;;;;;;6.60;4.22;;;18.30;99.00;;;;;;4942271;28;20364;-80
2022/09/30 11:03:40;;;;;;;8.18;4.85;;;18.60;99.80;;;;;;4934302;28;20047;-81
2022/09/30 11:06:08;;;;;;;4.07;3.53;;;18.70;98.50;;;;;;4944490;28;21508;-79
2022/09/30 11:08:56;;;;;;;4.55;3.72;;;18.70;99.20;;;;;;4957328;28;20645;-79
2022/09/30 11:11:33;;;;;;;7.10;3.70;;;19.10;98.40;;;;;;4941237;28;20074;-80
2022/09/30 11:14:10;;;;;;;6.68;3.80;;;18.30;99.90;;;;;;4926105;28;20857;-81
2022/09/30 11:16:42;;;;;;;3.60;2.88;;;18.80;98.80;;;;;;4963586;28;20443;-80
2022/09/30 11:19:17;;;;;;;6.03;3.30;;;18.60;99.80;;;;;;4941751;28;20522;-80
2022/09/30 11:21:55;;;;;;;8.20;4.22;;;18.80;99.20;;;;;;4928650;28;20042;-81
2022/09/30 11:24:33;;;;;;;5.60;3.40;;;18.90;98.60;;;;;;4948071;28;20197;-80
2022/09/30 11:27:16;;;;;;;5.78;3.53;;;19.30;98.10;;;;;;4940196;28;20039;-80
2022/09/30 11:30:10;;;;;;;8.02;4.10;;;19.20;97.10;;;;;;4947352;28;20131;-80
2022/09/30 11:32:51;;;;;;;7.15;4.15;;;19.50;96.20;;;;;;4956867;28;20023;-81
2022/09/30 11:35:40;;;;;;;5.18;3.45;;;19.30;97.50;;;;;;4941488;28;20424;-80
2022/09/30 11:38:18;;;;;;;6.30;3.72;;;19.10;97.10;;;;;;4949802;28;20039;-81
2022/09/30 11:41:02;;;;;;;5.53;3.78;;;18.80;97.50;;;;;;4957208;28;20193;-81
2022/09/30 11:44:11;;;;;;;3.20;1.73;;;18.90;97.30;;;;;;4946203;28;20051;-81
2022/09/30 11:46:46;;;;;;;3.83;2.35;;;18.80;96.60;;;;;;4930009;28;20035;-81
2022/09/30 11:49:42;;;;;;;5.32;3.40;;;18.80;96.30;;;;;;4930253;28;20498;-81
2022/09/30 11:52:14;;;;;;;6.13;3.20;;;19.20;95.40;;;;;;4954441;28;20033;-81
2022/09/30 11:54:49;;;;;;;4.40;3.28;;;19.50;94.50;;;;;;4926493;28;20090;-81
2022/09/30 11:57:21;;;;;;;5.10;3.67;;;19.10;95.60;;;;;;4960223;28;20482;-81
2022/09/30 11:59:58;;;;;;;6.32;4.03;;;19.50;94.30;;;;;;4951937;28;20127;-82
2022/09/30 12:02:42;;;;;;;8.77;4.30;;;19.50;93.50;;;;;;4942999;28;20042;-81
2022/09/30 12:05:17;;;;;;;3.28;2.97;;;19.60;93.60;;;;;;4954837;28;20046;-82
2022/09/30 12:07:56;;;;;;;5.63;3.53;;;19.90;93.20;;;;;;4959230;28;20027;-82
2022/09/30 12:10:27;;;;;;;6.32;3.80;;;19.90;93.90;;;;;;4954071;28;20035;-81
2022/09/30 12:13:00;;;;;;;10.65;3.58;;;19.70;93.60;;;;;;4939944;28;20082;-81
2022/09/30 12:15:26;;;;;;;6.50;3.63;;;19.90;92.80;;;;;;4942978;28;20032;-81
2022/09/30 12:18:01;;;;;;;6.75;4.13;;;19.90;92.30;;;;;;4940798;28;20024;-81
2022/09/30 12:20:33;;;;;;;3.67;3.05;;;20.00;91.60;;;;;;4918157;29;20488;-82
2022/09/30 12:23:19;;;;;;;6.85;4.13;;;20.10;91.80;;;;;;4961796;28;20035;-82
2022/09/30 12:25:55;;;;;;;6.90;3.92;;;20.00;91.20;;;;;;4957134;28;20024;-81
2022/09/30 12:31:38;;;;;;;5.78;3.20;;;20.20;90.20;;;;;;4957841;28;20042;-81
2022/09/30 12:34:15;;;;;;;7.28;3.60;;;20.70;90.00;;;;;;4957791;28;20031;-81
2022/09/30 12:37:00;;;;;;;4.40;3.40;;;20.60;89.50;;;;;;4954620;28;20029;-82
2022/09/30 12:40:02;;;;;;;7.07;3.75;;;20.40;88.80;;;;;;4943414;28;20046;-82
2022/09/30 12:43:02;;;;;;;3.55;2.70;;;20.60;89.50;;;;;;4957974;28;20037;-81
2022/09/30 12:46:03;;;;;;;5.88;3.28;;;20.90;87.90;;;;;;4957678;28;20019;-82
2022/09/30 12:48:36;;;;;;;5.60;3.25;;;20.50;88.80;;;;;;4896479;29;20043;-83
2022/09/30 12:51:02;;;;;;;5.18;3.15;;;20.60;89.00;;;;;;4932915;28;20034;-82
2022/09/30 12:53:29;;;;;;;2.58;2.35;;;21.00;89.70;;;;;;4927263;28;20101;-82
2022/09/30 12:56:15;;;;;;;7.75;3.97;;;20.50;90.00;;;;;;4941175;28;20506;-82
2022/09/30 12:58:43;;;;;;;7.55;2.78;;;21.00;84.90;;;;;;4944587;28;20020;-82
2022/09/30 13:01:22;;;;;;;4.65;2.92;;;21.10;86.00;;;;;;4935234;28;20047;-82
2022/09/30 13:03:48;;;;;;;6.57;2.67;;;21.30;83.80;;;;;;4937624;28;20035;-81
2022/09/30 13:06:14;;;;;;;5.65;3.05;;;21.50;83.10;;;;;;4927347;28;20087;-82
2022/09/30 13:08:46;;;;;;;6.05;3.10;;;21.00;84.20;;;;;;4950740;28;20031;-81
2022/09/30 13:11:37;;;;;;;2.97;2.28;;;21.10;83.00;;;;;;4937851;28;20062;-81
2022/09/30 13:14:24;;;;;;;3.45;2.80;;;21.40;80.00;;;;;;4936980;28;20039;-81
2022/09/30 13:17:00;;;;;;;6.40;3.33;;;21.10;83.40;;;;;;4936563;28;20042;-82